createdAt,value
2022-08-07T00:00:28.418Z,65.81
2022-08-07T00:03:09.130Z,65.82
2022-08-07T00:05:38.390Z,65.91
2022-08-07T00:08:07.877Z,65.77
2022-08-07T00:10:48.162Z,65.83
2022-08-07T00:13:26.819Z,65.83
2022-08-07T00:15:55.964Z,65.82
2022-08-07T00:18:27.961Z,65.71
2022-08-07T00:21:01.391Z,65.69
2022-08-07T00:23:32.379Z,65.62
2022-08-07T00:26:13.093Z,65.77
2022-08-07T00:28:55.745Z,65.81
2022-08-07T00:31:38.446Z,66.02
2022-08-07T00:34:10.739Z,66.08
2022-08-07T00:36:43.185Z,66.16
2022-08-07T00:39:16.674Z,65.90
2022-08-07T00:42:02.546Z,65.76
2022-08-07T00:44:34.993Z,65.77
2022-08-07T00:47:15.927Z,66.00
2022-08-07T00:50:19.572Z,65.97
2022-08-07T00:52:47.503Z,66.05
2022-08-07T00:55:17.494Z,66.24
2022-08-07T00:57:56.032Z,66.15
2022-08-07T01:00:25.238Z,66.47
2022-08-07T01:02:54.281Z,66.76
2022-08-07T01:05:24.515Z,66.84
2022-08-07T01:07:53.152Z,66.93
2022-08-07T01:10:23.989Z,66.73
2022-08-07T01:12:54.666Z,66.90
2022-08-07T01:15:36.112Z,66.83
2022-08-07T01:18:16.812Z,66.73
2022-08-07T01:20:59.604Z,66.72
2022-08-07T01:23:37.949Z,66.70
2022-08-07T01:26:12.060Z,66.65
2022-08-07T01:28:46.151Z,66.64
2022-08-07T01:31:20.140Z,66.49
2022-08-07T01:33:55.605Z,66.51
2022-08-07T01:36:33.934Z,66.56
2022-08-07T01:39:10.689Z,66.27
2022-08-07T01:42:07.493Z,66.32
2022-08-07T01:44:35.497Z,66.79
2022-08-07T01:48:16.386Z,66.88
2022-08-07T01:49:53.598Z,66.79
2022-08-07T01:52:26.661Z,66.83
2022-08-07T01:55:00.341Z,66.72
2022-08-07T01:58:05.573Z,66.59
2022-08-07T02:00:31.306Z,66.73
2022-08-07T02:03:18.174Z,66.92
2022-08-07T02:06:08.866Z,67.03
2022-08-07T02:08:54.604Z,67.42
2022-08-07T02:11:30.678Z,67.72
2022-08-07T02:14:40.357Z,68.08
2022-08-07T02:17:10.992Z,68.02
2022-08-07T02:20:04.768Z,67.89
2022-08-07T02:22:40.970Z,67.99
2022-08-07T02:25:13.974Z,67.87
2022-08-07T02:27:55.976Z,68.12
2022-08-07T02:30:25.865Z,68.20
2022-08-07T02:33:00.241Z,68.26
2022-08-07T02:36:26.803Z,68.64
2022-08-07T02:38:33.394Z,68.45
2022-08-07T02:41:04.580Z,68.57
2022-08-07T02:43:38.878Z,68.32
2022-08-07T02:46:11.106Z,68.35
2022-08-07T02:48:40.238Z,68.53
2022-08-07T02:51:42.735Z,68.27
2022-08-07T02:54:16.553Z,68.17
2022-08-07T02:56:47.671Z,68.02
2022-08-07T02:59:25.869Z,67.85
2022-08-07T03:02:02.306Z,67.80
2022-08-07T03:04:32.223Z,67.69
2022-08-07T03:07:07.341Z,67.60
2022-08-07T03:09:43.329Z,67.75
2022-08-07T03:12:22.464Z,67.84
2022-08-07T03:15:02.283Z,68.00
2022-08-07T03:17:53.911Z,68.11
2022-08-07T03:20:24.406Z,68.24
2022-08-07T03:22:55.306Z,68.35
2022-08-07T03:25:25.463Z,68.53
2022-08-07T03:28:08.848Z,68.47
2022-08-07T03:30:39.851Z,68.41
2022-08-07T03:33:11.171Z,68.64
2022-08-07T03:35:50.283Z,68.80
2022-08-07T03:38:21.059Z,68.86
2022-08-07T03:41:01.693Z,68.83
2022-08-07T03:43:33.253Z,68.65
2022-08-07T03:46:10.340Z,68.66
2022-08-07T03:48:45.561Z,68.66
2022-08-07T03:51:31.034Z,68.37
2022-08-07T03:54:36.096Z,68.49
2022-08-07T03:57:07.438Z,68.69
2022-08-07T03:59:37.471Z,68.35
2022-08-07T04:02:16.079Z,68.25
2022-08-07T04:04:45.791Z,68.10
2022-08-07T04:07:36.001Z,67.80
2022-08-07T04:10:15.426Z,67.44
2022-08-07T04:12:49.205Z,67.18
2022-08-07T04:15:19.444Z,66.73
2022-08-07T04:18:57.945Z,66.54
2022-08-07T04:20:54.374Z,66.40
2022-08-07T04:23:25.458Z,66.37
2022-08-07T04:26:13.995Z,66.36
2022-08-07T04:28:45.647Z,66.06
2022-08-07T04:31:20.037Z,65.52
2022-08-07T04:33:55.152Z,65.68
2022-08-07T04:36:26.245Z,65.48
2022-08-07T04:38:54.936Z,65.53
2022-08-07T04:41:23.209Z,65.63
2022-08-07T04:44:11.934Z,65.64
2022-08-07T04:47:04.980Z,65.61
2022-08-07T04:49:41.900Z,65.43
2022-08-07T04:52:27.990Z,65.31
2022-08-07T04:55:02.415Z,65.51
2022-08-07T04:58:11.571Z,65.53
2022-08-07T05:00:59.359Z,65.05
2022-08-07T05:04:06.911Z,64.54
2022-08-07T05:07:20.442Z,64.70
2022-08-07T05:09:55.049Z,64.73
2022-08-07T05:12:31.824Z,64.70
2022-08-07T05:15:23.313Z,64.20
2022-08-07T05:18:01.761Z,64.45
2022-08-07T05:20:47.240Z,64.59
2022-08-07T05:23:29.130Z,64.75
2022-08-07T05:26:13.420Z,64.43
2022-08-07T05:28:50.449Z,63.84
2022-08-07T05:31:24.074Z,63.52
2022-08-07T05:34:11.008Z,63.03
2022-08-07T05:36:43.866Z,63.42
2022-08-07T05:40:05.547Z,63.40
2022-08-07T05:42:14.291Z,62.74
2022-08-07T05:44:52.996Z,62.27
2022-08-07T05:47:38.285Z,61.71
2022-08-07T05:50:24.204Z,61.26
2022-08-07T05:52:52.384Z,61.25
2022-08-07T05:55:21.983Z,61.48
2022-08-07T05:57:53.012Z,61.52
2022-08-07T06:00:25.399Z,61.14
2022-08-07T06:03:00.737Z,61.16
2022-08-07T06:05:31.536Z,61.57
2022-08-07T06:08:29.424Z,61.75
2022-08-07T06:10:54.904Z,61.91
2022-08-07T06:14:10.664Z,61.94
2022-08-07T06:16:15.182Z,61.24
2022-08-07T06:18:51.822Z,60.81
2022-08-07T06:22:15.330Z,60.32
2022-08-07T06:24:52.512Z,60.19
2022-08-07T06:27:03.723Z,59.88
2022-08-07T06:29:34.275Z,60.01
2022-08-07T06:32:02.690Z,60.04
2022-08-07T06:34:33.325Z,60.15
2022-08-07T06:37:02.586Z,59.87
2022-08-07T06:40:12.973Z,59.51
2022-08-07T06:42:37.218Z,59.08
2022-08-07T06:45:37.927Z,59.15
2022-08-07T06:48:11.441Z,58.90
2022-08-07T06:50:47.826Z,58.81
2022-08-07T06:55:29.105Z,58.54
2022-08-07T06:56:15.111Z,58.00
2022-08-07T07:00:12.994Z,57.74
2022-08-07T07:01:43.894Z,56.50
2022-08-07T07:04:28.450Z,56.78
2022-08-07T07:07:10.681Z,56.36
2022-08-07T07:09:50.841Z,56.27
2022-08-07T07:12:48.413Z,56.06
2022-08-07T07:15:23.962Z,54.84
2022-08-07T07:18:48.163Z,55.30
2022-08-07T07:21:19.636Z,55.21
2022-08-07T07:24:06.626Z,53.90
2022-08-07T07:26:51.906Z,53.86
2022-08-07T07:29:56.711Z,53.27
2022-08-07T07:32:17.948Z,52.45
2022-08-07T07:34:49.456Z,52.37
2022-08-07T07:37:43.878Z,51.95
2022-08-07T07:40:15.565Z,52.96
2022-08-07T07:42:47.189Z,52.79
2022-08-07T07:46:36.559Z,52.56
2022-08-07T07:48:35.127Z,52.71
2022-08-07T07:51:08.603Z,51.37
2022-08-07T07:53:44.737Z,50.52
2022-08-07T07:56:30.585Z,50.72
2022-08-07T07:59:02.106Z,50.65
2022-08-07T08:02:02.299Z,50.30
2022-08-07T08:04:25.485Z,50.82
2022-08-07T08:06:55.392Z,50.53
2022-08-07T08:09:29.548Z,50.33
2022-08-07T08:12:03.845Z,49.85
2022-08-07T08:14:36.342Z,49.32
2022-08-07T08:17:55.272Z,48.69
2022-08-07T08:20:17.056Z,47.84
2022-08-07T08:23:12.062Z,47.65
2022-08-07T08:26:07.021Z,46.48
2022-08-07T08:28:44.735Z,47.29
2022-08-07T08:31:30.175Z,46.14
2022-08-07T08:34:12.443Z,45.31
2022-08-07T08:36:56.195Z,45.26
2022-08-07T08:39:39.350Z,45.15
2022-08-07T08:42:41.479Z,44.18
2022-08-07T08:45:58.524Z,43.34
2022-08-07T08:48:55.772Z,43.18
2022-08-07T08:52:13.391Z,43.94
2022-08-07T08:54:41.767Z,42.50
2022-08-07T08:57:27.190Z,40.82
2022-08-07T09:00:04.535Z,40.14
2022-08-07T09:02:38.816Z,40.06
2022-08-07T09:05:53.806Z,39.87
2022-08-07T09:08:55.575Z,39.18
2022-08-07T09:11:24.500Z,38.31
2022-08-07T09:14:27.675Z,38.16
2022-08-07T09:17:17.625Z,38.24
2022-08-07T09:20:30.720Z,37.22
2022-08-07T09:24:52.495Z,37.22
2022-08-07T09:26:17.196Z,36.82
2022-08-07T09:30:05.650Z,36.40
2022-08-07T09:32:01.318Z,36.21
2022-08-07T09:34:58.534Z,35.93
2022-08-07T09:38:12.297Z,35.94
2022-08-07T09:41:06.152Z,35.88
2022-08-07T09:44:06.170Z,36.44
2022-08-07T09:47:55.116Z,35.86
2022-08-07T09:50:18.641Z,36.10
2022-08-07T09:53:02.067Z,36.62
2022-08-07T09:56:04.393Z,36.24
2022-08-07T09:59:07.551Z,35.64
2022-08-07T10:02:05.070Z,35.54
2022-08-07T10:05:12.632Z,35.51
2022-08-07T10:07:52.424Z,34.35
2022-08-07T10:11:07.664Z,34.32
2022-08-07T10:14:00.979Z,33.97
2022-08-07T10:16:29.232Z,33.56
2022-08-07T10:19:11.158Z,33.52
2022-08-07T10:22:16.957Z,34.14
2022-08-07T10:25:04.825Z,33.09
2022-08-07T10:28:12.970Z,32.82
2022-08-07T10:30:59.632Z,33.55
2022-08-07T10:34:06.503Z,33.44
2022-08-07T10:37:16.059Z,33.26
2022-08-07T10:40:03.239Z,32.84
2022-08-07T10:42:42.873Z,32.23
2022-08-07T10:45:44.459Z,32.31
2022-08-07T10:48:34.755Z,31.15
2022-08-07T10:51:16.867Z,30.89
2022-08-07T10:54:41.723Z,30.63
2022-08-07T10:57:56.298Z,30.47
2022-08-07T11:00:36.732Z,30.41
2022-08-07T11:03:52.776Z,29.67
2022-08-07T11:06:35.885Z,28.76
2022-08-07T11:10:10.281Z,29.05
2022-08-07T11:12:32.273Z,28.24
2022-08-07T11:15:17.465Z,27.93
2022-08-07T11:17:53.081Z,27.86
2022-08-07T11:20:54.251Z,27.83
2022-08-07T11:23:38.388Z,27.20
2022-08-07T11:26:13.086Z,27.03
2022-08-07T11:28:53.490Z,26.29
2022-08-07T11:31:34.998Z,27.20
2022-08-07T11:34:16.538Z,26.35
2022-08-07T11:37:06.729Z,26.16
2022-08-07T11:40:00.006Z,26.21
2022-08-07T11:42:59.816Z,25.75
2022-08-07T11:45:35.960Z,26.27
2022-08-07T11:48:29.734Z,26.22
2022-08-07T11:51:41.955Z,26.22
2022-08-07T11:54:22.118Z,25.89
2022-08-07T11:57:03.512Z,26.82
2022-08-07T12:00:11.341Z,26.62
2022-08-07T12:03:01.243Z,26.48
2022-08-07T12:05:50.467Z,27.19
2022-08-07T12:08:31.709Z,27.36
2022-08-07T12:11:24.084Z,26.97
2022-08-07T12:14:11.715Z,26.21
2022-08-07T12:17:19.802Z,26.73
2022-08-07T12:20:09.493Z,26.62
2022-08-07T12:22:56.124Z,26.12
2022-08-07T12:26:02.953Z,25.21
2022-08-07T12:29:12.233Z,25.12
2022-08-07T12:32:04.095Z,26.81
2022-08-07T12:34:40.837Z,27.08
2022-08-07T12:37:17.027Z,26.29
2022-08-07T12:39:55.047Z,26.26
2022-08-07T12:42:28.623Z,26.57
2022-08-07T12:45:13.850Z,26.39
2022-08-07T12:47:56.415Z,26.35
2022-08-07T12:50:48.870Z,26.24
2022-08-07T12:53:19.021Z,26.03
2022-08-07T12:56:12.420Z,25.85
2022-08-07T12:58:46.766Z,25.93
2022-08-07T13:01:50.775Z,26.27
2022-08-07T13:05:06.431Z,26.45
2022-08-07T13:08:12.265Z,26.35
2022-08-07T13:11:16.822Z,26.89
2022-08-07T13:13:58.128Z,26.18
2022-08-07T13:16:53.519Z,25.51
2022-08-07T13:19:50.886Z,25.63
2022-08-07T13:22:40.850Z,26.18
2022-08-07T13:25:30.099Z,26.73
2022-08-07T13:28:12.934Z,27.54
2022-08-07T13:31:02.139Z,27.03
2022-08-07T13:34:32.138Z,26.40
2022-08-07T13:36:57.817Z,25.99
2022-08-07T13:40:34.291Z,26.87
2022-08-07T13:42:27.188Z,26.22
2022-08-07T13:46:06.135Z,26.01
2022-08-07T13:48:08.395Z,26.67
2022-08-07T13:51:00.019Z,27.52
2022-08-07T13:54:00.212Z,27.46
2022-08-07T13:56:35.655Z,27.89
2022-08-07T13:59:18.077Z,28.19
2022-08-07T14:02:03.754Z,28.94
2022-08-07T14:04:49.658Z,28.11
2022-08-07T14:07:23.097Z,28.04
2022-08-07T14:10:16.503Z,27.95
2022-08-07T14:12:54.075Z,28.01
2022-08-07T14:15:35.115Z,28.15
2022-08-07T14:18:30.443Z,27.84
2022-08-07T14:21:21.170Z,27.77
2022-08-07T14:24:06.098Z,27.73
2022-08-07T14:26:50.343Z,28.14
2022-08-07T14:30:02.925Z,28.65
2022-08-07T14:32:13.241Z,28.68
2022-08-07T14:34:46.480Z,28.48
2022-08-07T14:37:18.633Z,27.72
2022-08-07T14:40:16.469Z,27.74
2022-08-07T14:43:01.443Z,28.10
2022-08-07T14:48:34.596Z,29.49
2022-08-07T14:51:15.810Z,30.49
2022-08-07T14:54:05.555Z,31.29
2022-08-07T14:56:40.637Z,32.11
2022-08-07T15:02:33.062Z,32.66
2022-08-07T15:05:05.016Z,33.39
2022-08-07T15:07:51.939Z,33.99
2022-08-07T15:10:26.119Z,34.65
2022-08-07T15:13:00.266Z,35.07
2022-08-07T15:15:43.083Z,35.58
2022-08-07T15:18:34.838Z,35.61
2022-08-07T15:21:43.740Z,36.01
2022-08-07T15:25:16.380Z,36.00
2022-08-07T15:27:03.947Z,36.95
2022-08-07T15:30:06.467Z,37.39
2022-08-07T15:35:18.221Z,38.47
2022-08-07T15:38:30.179Z,37.60
2022-08-07T15:43:58.860Z,38.23
2022-08-07T15:46:37.639Z,38.37
2022-08-07T15:49:14.536Z,38.27
2022-08-07T15:54:40.591Z,38.43
2022-08-07T15:57:39.833Z,38.52
2022-08-07T16:00:06.713Z,38.24
2022-08-07T16:02:47.147Z,38.18
2022-08-07T16:05:19.796Z,38.45
2022-08-07T16:08:31.349Z,38.66
2022-08-07T16:10:49.864Z,37.98
2022-08-07T16:13:59.403Z,38.03
2022-08-07T16:16:47.736Z,38.55
2022-08-07T16:19:58.994Z,39.58
2022-08-07T16:22:55.071Z,39.19
2022-08-07T16:25:54.916Z,39.23
2022-08-07T16:30:06.016Z,39.24
2022-08-07T16:31:51.668Z,39.49
2022-08-07T16:35:00.018Z,39.72
2022-08-07T16:38:06.662Z,39.40
2022-08-07T16:41:02.086Z,39.86
2022-08-07T16:44:06.018Z,40.38
2022-08-07T16:47:16.044Z,40.78
2022-08-07T16:50:35.963Z,40.83
2022-08-07T16:53:57.161Z,41.14
2022-08-07T16:56:32.415Z,41.57
2022-08-07T16:59:45.995Z,41.92
2022-08-07T17:02:51.639Z,42.24
2022-08-07T17:06:18.815Z,42.46
2022-08-07T17:08:10.715Z,42.64
2022-08-07T17:10:54.815Z,42.65
2022-08-07T17:13:41.887Z,43.25
2022-08-07T17:16:29.384Z,44.41
2022-08-07T17:19:03.958Z,45.20
2022-08-07T17:21:52.306Z,45.72
2022-08-07T17:24:29.746Z,46.05
2022-08-07T17:26:58.633Z,46.37
2022-08-07T17:30:15.064Z,46.74
2022-08-07T17:32:57.716Z,47.16
2022-08-07T17:35:54.653Z,47.38
2022-08-07T17:38:46.592Z,47.65
2022-08-07T17:42:04.984Z,47.74
2022-08-07T17:44:35.083Z,48.20
2022-08-07T17:47:54.004Z,48.43
2022-08-07T17:50:35.563Z,48.81
2022-08-07T17:54:02.272Z,48.92
2022-08-07T17:56:42.138Z,49.21
2022-08-07T17:59:35.982Z,49.22
2022-08-07T18:02:23.268Z,49.52
2022-08-07T18:05:10.550Z,49.55
2022-08-07T18:08:16.438Z,49.85
2022-08-07T18:12:07.371Z,50.39
2022-08-07T18:14:16.646Z,50.71
2022-08-07T18:16:58.842Z,50.74
2022-08-07T18:21:03.564Z,50.96
2022-08-07T18:22:57.828Z,50.88
2022-08-07T18:25:39.359Z,51.23
2022-08-07T18:28:34.374Z,51.28
2022-08-07T18:31:40.445Z,51.42
2022-08-07T18:34:37.436Z,51.52
2022-08-07T18:38:57.834Z,51.60
2022-08-07T18:40:57.674Z,51.71
2022-08-07T18:44:03.064Z,51.79
2022-08-07T18:47:00.336Z,52.20
2022-08-07T18:50:19.275Z,52.20
2022-08-07T18:52:55.157Z,52.51
2022-08-07T18:55:57.295Z,52.61
2022-08-07T18:58:35.922Z,52.81
2022-08-07T19:02:17.502Z,52.99
2022-08-07T19:04:09.536Z,53.17
2022-08-07T19:06:51.505Z,53.42
2022-08-07T19:09:56.811Z,53.57
2022-08-07T19:12:37.052Z,53.71
2022-08-07T19:16:04.729Z,53.89
2022-08-07T19:18:44.802Z,54.36
2022-08-07T19:21:48.018Z,54.56
2022-08-07T19:24:30.430Z,54.69
2022-08-07T19:28:58.136Z,55.19
2022-08-07T19:31:06.290Z,55.07
2022-08-07T19:32:50.872Z,55.35
2022-08-07T19:35:26.825Z,55.26
2022-08-07T19:38:00.075Z,55.40
2022-08-07T19:40:34.794Z,55.45
2022-08-07T19:43:43.202Z,55.67
2022-08-07T19:46:10.778Z,55.93
2022-08-07T19:48:54.099Z,56.27
2022-08-07T19:51:51.901Z,56.54
2022-08-07T19:54:31.588Z,56.84
2022-08-07T19:58:02.927Z,56.87
2022-08-07T20:00:10.413Z,56.98
2022-08-07T20:02:52.164Z,57.20
2022-08-07T20:05:28.134Z,57.35
2022-08-07T20:08:01.044Z,57.42
2022-08-07T20:10:35.951Z,57.63
2022-08-07T20:13:32.025Z,57.64
2022-08-07T20:16:04.930Z,57.84
2022-08-07T20:18:34.768Z,57.91
2022-08-07T20:21:14.790Z,58.09
2022-08-07T20:23:57.964Z,58.25
2022-08-07T20:26:45.156Z,58.45
2022-08-07T20:29:49.464Z,58.66
2022-08-07T20:32:22.806Z,58.97
2022-08-07T20:35:01.217Z,58.78
2022-08-07T20:37:58.264Z,58.90
2022-08-07T20:40:34.312Z,59.07
2022-08-07T20:43:14.865Z,58.94
2022-08-07T20:46:25.745Z,59.54
2022-08-07T20:48:57.957Z,59.29
2022-08-07T20:51:36.065Z,59.39
2022-08-07T20:54:11.981Z,59.49
2022-08-07T20:56:50.066Z,59.83
2022-08-07T21:00:05.615Z,59.73
2022-08-07T21:02:55.248Z,59.63
2022-08-07T21:05:52.759Z,60.04
2022-08-07T21:08:38.101Z,60.13
2022-08-07T21:11:18.317Z,60.37
2022-08-07T21:14:16.426Z,60.40
2022-08-07T21:16:57.058Z,60.19
2022-08-07T21:19:51.627Z,60.74
2022-08-07T21:22:30.786Z,60.80
2022-08-07T21:25:19.454Z,61.10
2022-08-07T21:28:06.371Z,61.14
2022-08-07T21:30:43.221Z,61.39
2022-08-07T21:33:20.314Z,61.33
2022-08-07T21:36:31.089Z,61.38
2022-08-07T21:39:45.091Z,61.57
2022-08-07T21:42:10.688Z,61.38
2022-08-07T21:45:08.385Z,61.51
2022-08-07T21:48:27.589Z,61.63
2022-08-07T21:51:25.847Z,61.89
2022-08-07T21:54:19.328Z,62.03
2022-08-07T21:57:31.514Z,62.12
2022-08-07T22:00:24.884Z,62.27
2022-08-07T22:03:17.135Z,62.26
2022-08-07T22:05:56.143Z,62.26
2022-08-07T22:08:42.976Z,62.23
2022-08-07T22:11:17.655Z,61.96
2022-08-07T22:13:55.574Z,62.00
2022-08-07T22:16:42.220Z,61.92
2022-08-07T22:20:07.003Z,61.99
2022-08-07T22:22:45.982Z,62.00
2022-08-07T22:25:40.032Z,61.77
2022-08-07T22:28:31.146Z,61.80
2022-08-07T22:31:56.150Z,61.99
2022-08-07T22:34:31.721Z,62.04
2022-08-07T22:37:12.536Z,62.15
2022-08-07T22:40:05.054Z,62.45
2022-08-07T22:42:36.668Z,62.58
2022-08-07T22:45:11.048Z,62.67
2022-08-07T22:47:58.329Z,62.73
2022-08-07T22:50:43.580Z,62.78
2022-08-07T22:54:07.582Z,62.81
2022-08-07T22:57:26.030Z,62.72
2022-08-07T23:00:03.309Z,62.79
2022-08-07T23:02:46.878Z,62.80
2022-08-07T23:06:09.067Z,62.94
2022-08-07T23:08:31.882Z,63.12
2022-08-07T23:11:15.161Z,63.35
2022-08-07T23:14:10.541Z,63.13
2022-08-07T23:17:20.181Z,63.14
2022-08-07T23:20:51.280Z,63.08
2022-08-07T23:24:06.992Z,63.22
2022-08-07T23:26:30.013Z,63.51
2022-08-07T23:29:43.572Z,63.45
2022-08-07T23:34:21.201Z,63.59
2022-08-07T23:35:23.713Z,63.48
2022-08-07T23:38:05.729Z,63.78
2022-08-07T23:40:42.911Z,63.99
2022-08-07T23:43:43.537Z,64.26
2022-08-07T23:46:43.017Z,64.34
2022-08-07T23:49:50.441Z,64.39
2022-08-07T23:53:00.637Z,64.41
2022-08-07T23:55:52.618Z,64.43
2022-08-07T23:58:31.983Z,64.63
